FlightSpace

Additional description
No additional description
Departure
  • Poznań-Ławica Airport (EPPO)
  • Local date: Feb 17, 2014
  • Start-up time: 10:16:26 CET (UTC +01:00)
  • Block off time: 10:16:26 CET (UTC +01:00)
  • Take off time: 10:29:17 CET (UTC +01:00)
  • METAR:
    EPPO 170930Z 24006KT CAVOK 04/03 Q1014 R10/19//95
Destination
  • Poznań-Ławica Airport (EPPO)
  • Local date: Feb 17, 2014
  • Shut-down time: 11:58:14 CET (UTC +01:00)
  • Block on time: 11:58:14 CET (UTC +01:00)
  • Landing time: 11:54:42 CET (UTC +01:00)
  • METAR:
    EPPO 171100Z 25008KT 9999 FEW016 BKN048 06/01 Q1015 R10/19//95

Flight summary
Hobbs time: 01:41 Block time: 01:41 Flight time: 01:25
Distance: 179 NM Max altitude/level: 2992 ft Number of Landings: 1
Fuel burned: 105.55 l Average fuel consumption: 62.21 l/h
Comments